• Join FlightAware (Why Join?)
  • Login
  • US Flag GB Flag 
12:37 EST


 

Airport Tracker/Info


-or-


 

Live Flight TrackerFlight Track Log ✈ AAL832 ✈ 20-Aug-2013 ✈ KLAX - KORD

Flight Track Log - Related Links

Times and Time Zones

All times are in EDT time to prevent confusion due to time zone crossing. See the AAL832 flight status page for this flight to view local times or setup timezone preferences in your user account.

Time Position Orientation Groundspeed Altitude Reporting Facility
EDT Latitude Longitude Course Direction KTS MPH feet Rate Location/Type
12:34 33.9350 -118.4300 264° West 179 206 1,500  Level FlightAware
12:34 33.9330 -118.4590 265° West 222 255 1,900 1,620 Climbing FlightAware
12:35 33.9280 -118.4800 254° West 243 280 2,600 2,640 Climbing FlightAware
12:35 33.9210 -118.5040 251° West 250 288 3,500 2,700 Climbing FlightAware
12:35 33.9120 -118.5310 248° West 261 300 4,400 3,360 Climbing FlightAware
12:35 33.9040 -118.5460 237° Southwest 254 292 5,300 3,900 Climbing FlightAware
12:36 33.8980 -118.5530 224° Southwest 246 283 5,700 3,480 Climbing FlightAware
12:36 33.8930 -118.5570 214° Southwest 245 282 6,000 2,520 Climbing FlightAware
12:36 33.8840 -118.5600 195° South 245 282 6,300 2,400 Climbing FlightAware
12:36 33.8630 -118.5570 173° South 256 295 7,200 2,880 Climbing FlightAware
12:36 33.8490 -118.5390 133° Southeast 261 300 8,000 3,000 Climbing FlightAware
12:37 33.8470 -118.5330 112° Southeast 267 307 8,200 2,160 Climbing FlightAware
12:37 33.8460 -118.5260 100° East 269 310 8,400 2,580 Climbing FlightAware
12:37 33.8540 -118.4910 75° East 282 325 9,500 2,640 Climbing FlightAware
12:37 33.8600 -118.4830 48° Northeast 290 334 9,700 1,500 Climbing FlightAware
12:37 33.8750 -118.4690 38° Northeast 311 358 10,000 1,200 Climbing FlightAware
12:38 33.9240 -118.4370 28° Northeast 355 409 10,700 1,440 Climbing FlightAware
12:38 33.9430 -118.4170 41° Northeast 364 419 11,200 2,640 Climbing FlightAware
12:39 33.9710 -118.3660 56° Northeast 363 418 12,700 2,700 Climbing FlightAware
12:39 34.0080 -118.3000 56° Northeast 372 428 14,400 2,520 Climbing FlightAware
12:40 34.0440 -118.2370 55° Northeast 384 442 15,900 2,400 Climbing FlightAware
12:40 34.0730 -118.1850 56° Northeast 395 455 17,000 2,220 Climbing FlightAware
12:41 34.1150 -118.1120 55° Northeast 405 466 18,500 2,460 Climbing FlightAware
12:42 34.1530 -118.0440 56° Northeast 408 470 20,100 2,460 Climbing FlightAware
12:42 34.1880 -117.9820 56° Northeast 410 472 21,400 2,220 Climbing FlightAware
12:43 34.2280 -117.9110 56° Northeast 416 479 22,700 2,040 Climbing FlightAware
12:44 34.2710 -117.8340 56° Northeast 416 479 24,000 1,920 Climbing FlightAware
12:44 34.3200 -117.7570 52° Northeast 432 497 25,300 1,740 Climbing FlightAware
12:45 34.3620 -117.6970 50° Northeast 440 506 26,100 1,200 Climbing FlightAware
12:45 34.4030 -117.6400 49° Northeast 447 514 26,700 1,260 Climbing FlightAware
12:46 34.4670 -117.5490 50° Northeast 461 531 27,800 1,440 Climbing FlightAware
12:47 34.5180 -117.4760 50° Northeast 468 539 28,600 1,320 Climbing FlightAware
12:47 34.5680 -117.4030 50° Northeast 472 543 29,400 1,560 Climbing FlightAware
12:48 34.6130 -117.3390 49° Northeast 470 541 30,400 1,860 Climbing FlightAware
12:48 34.6610 -117.2690 50° Northeast 464 534 31,500 1,620 Climbing FlightAware
12:49 34.7070 -117.2030 50° Northeast 462 532 32,300 1,380 Climbing FlightAware
12:50 34.7590 -117.1280 50° Northeast 461 531 33,200 1,380 Climbing FlightAware
12:50 34.8050 -117.0610 50° Northeast 460 529 34,000 1,320 Climbing FlightAware
12:51 34.8540 -116.9900 50° Northeast 457 526 34,800 600 Climbing FlightAware
12:51 34.8980 -116.9260 50° Northeast 457 526 34,800 1,080 Level FlightAware
12:52 34.9420 -116.8620 50° Northeast 494 568 36,000 1,200 Climbing FlightAware
12:52 34.9870 -116.7950 51° Northeast 455 524 36,200 780 Climbing FlightAware
12:53 35.0420 -116.7150 50° Northeast 452 520 37,000 720 Climbing FlightAware
12:54 35.0840 -116.6530 50° Northeast 450 518 37,000  Level FlightAware
12:54 35.1280 -116.5900 49° Northeast 450 518 37,000  Level FlightAware
12:55 35.1920 -116.4950 50° Northeast 448 516 37,000  Level FlightAware
12:56 35.2330 -116.4350 50° Northeast 448 516 37,000  Level FlightAware
12:56 35.2740 -116.3760 50° Northeast 448 516 37,000  Level FlightAware
12:57 35.3140 -116.3160 51° Northeast 448 516 37,000  Level FlightAware
12:57 35.3550 -116.2570 50° Northeast 448 516 37,000  Level FlightAware
12:58 35.4440 -116.1210 51° Northeast 449 517 37,000  Level FlightAware
12:59 35.4860 -116.0580 51° Northeast 450 518 37,000  Level FlightAware
12:59 35.5330 -115.9870 51° Northeast 451 519 37,000  Level FlightAware
13:00 35.5810 -115.9160 50° Northeast 452 520 37,000  Level FlightAware
13:00 35.6260 -115.8490 50° Northeast 452 520 37,000  Level FlightAware
13:01 35.6740 -115.7770 51° Northeast 452 520 37,000  Level FlightAware
13:02 35.7210 -115.7050 51° Northeast 452 520 37,000  Level FlightAware
13:02 35.7630 -115.6410 51° Northeast 452 520 37,000  Level FlightAware
13:03 35.8110 -115.5700 50° Northeast 454 522 37,000  Level FlightAware
13:03 35.8590 -115.4960 51° Northeast 454 522 37,000  Level FlightAware
13:04 35.9070 -115.4240 51° Northeast 455 524 37,000  Level FlightAware
13:04 35.9490 -115.3600 51° Northeast 457 526 37,000  Level FlightAware
13:05 35.9920 -115.2950 51° Northeast 457 526 37,000  Level FlightAware
13:06 36.0390 -115.2220 51° Northeast 459 528 37,000  Level FlightAware
13:06 36.0870 -115.1440 53° Northeast 458 527 37,000  Level FlightAware
13:07 36.1270 -115.0600 59° Northeast 458 527 37,000  Level FlightAware
13:07 36.1650 -114.9790 60° Northeast 458 527 37,000  Level FlightAware
13:08 36.1940 -114.9150 61° Northeast 458 527 37,000  Level FlightAware
13:08 36.2340 -114.8310 59° Northeast 459 528 37,000  Level FlightAware
13:09 36.2740 -114.7440 60° Northeast 459 528 37,000  Level FlightAware
13:10 36.3110 -114.6640 60° Northeast 460 529 37,000  Level FlightAware
13:10 36.3490 -114.5830 60° Northeast 461 531 37,000  Level FlightAware
13:11 36.3840 -114.5070 60° Northeast 462 532 37,000  Level FlightAware
13:11 36.4220 -114.4260 60° Northeast 463 533 37,000  Level FlightAware
13:12 36.4600 -114.3420 61° Northeast 464 534 37,000  Level FlightAware
13:13 36.4940 -114.2680 60° Northeast 465 535 37,000  Level FlightAware
13:13 36.5320 -114.1860 60° Northeast 467 537 37,000  Level FlightAware
13:14 36.5740 -114.0940 60° Northeast 465 535 37,000  Level FlightAware
13:14 36.6110 -114.0120 61° Northeast 463 533 37,000  Level FlightAware
13:15 36.6450 -113.9380 60° Northeast 463 533 37,000  Level FlightAware
13:16 36.6820 -113.8560 61° Northeast 463 533 37,000  Level FlightAware
13:16 36.7190 -113.7750 60° Northeast 464 534 37,000  Level FlightAware
13:17 36.7560 -113.6930 61° Northeast 464 534 37,000  Level FlightAware
13:17 36.7880 -113.6220 61° Northeast 464 534 37,000  Level FlightAware
13:18 36.8280 -113.5340 60° Northeast 464 534 37,000  Level FlightAware
13:18 36.8650 -113.4500 61° Northeast 464 534 37,000  Level FlightAware
13:19 36.9020 -113.3680 61° Northeast 465 535 37,000  Level FlightAware
13:20 36.9390 -113.2850 61° Northeast 465 535 37,000  Level FlightAware
13:20 36.9770 -113.2000 61° Northeast 465 535 37,000  Level FlightAware
13:21 37.0120 -113.1260 59° Northeast 467 537 37,000  Level FlightAware
13:21 37.0580 -113.0440 55° Northeast 466 536 37,000  Level FlightAware
13:22 37.0970 -112.9720 56° Northeast 465 535 37,000  Level FlightAware
13:23 37.1400 -112.8940 55° Northeast 465 535 37,000  Level FlightAware
13:23 37.1880 -112.8070 55° Northeast 464 534 37,000  Level FlightAware
13:24 37.2380 -112.7170 55° Northeast 463 533 37,000  Level FlightAware
13:25 37.2780 -112.6460 55° Northeast 463 533 37,000  Level FlightAware
13:25 37.3150 -112.5780 56° Northeast 463 533 37,000  Level FlightAware
13:26 37.3530 -112.5110 54° Northeast 463 533 37,000  Level FlightAware
13:26 37.3900 -112.4430 56° Northeast 463 533 37,000  Level FlightAware
13:27 37.4280 -112.3750 55° Northeast 463 533 37,000  Level FlightAware
13:28 37.4660 -112.3080 54° Northeast 463 533 37,000  Level FlightAware
13:28 37.5040 -112.2380 56° Northeast 463 533 37,000  Level FlightAware
13:29 37.5440 -112.1670 55° Northeast 463 533 37,000  Level FlightAware
13:29 37.5790 -112.1030 55° Northeast 463 533 37,000  Level FlightAware
13:30 37.6170 -112.0350 55° Northeast 463 533 37,000  Level FlightAware
13:31 37.6550 -111.9670 55° Northeast 463 533 37,000  Level FlightAware
13:31 37.6930 -111.8980 55° Northeast 463 533 37,000  Level FlightAware
13:32 37.7310 -111.8300 55° Northeast 463 533 37,000  Level FlightAware
13:32 37.7680 -111.7620 55° Northeast 463 533 37,000  Level FlightAware
13:33 37.8060 -111.6940 55° Northeast 463 533 37,000  Level FlightAware
13:36 38.0380 -111.0470 65° Northeast 458 527 37,000  Level FlightAware
13:37 38.0700 -110.9710 62° Northeast 457 526 37,000  Level FlightAware
13:37 38.1050 -110.8860 62° Northeast 457 526 37,000  Level FlightAware
13:38 38.1450 -110.7880 63° Northeast 457 526 37,000  Level FlightAware
13:38 38.1800 -110.7050 62° Northeast 455 524 37,000  Level FlightAware
13:39 38.2130 -110.6250 62° Northeast 455 524 37,000  Level FlightAware
13:40 38.2530 -110.5270 63° Northeast 455 524 37,000  Level FlightAware
13:40 38.2930 -110.4280 63° Northeast 456 525 37,000  Level FlightAware
13:41 38.3330 -110.3300 62° Northeast 457 526 37,000  Level FlightAware
13:42 38.3690 -110.2440 62° Northeast 458 527 37,000  Level FlightAware
13:42 38.4050 -110.1560 62° Northeast 459 528 37,000  Level FlightAware
13:43 38.4420 -110.0630 63° Northeast 459 528 37,000  Level FlightAware
13:43 38.4740 -109.9840 63° Northeast 460 529 37,000  Level FlightAware
13:44 38.4870 -109.9560 59° Northeast 464 534 37,000  Level FlightAware
13:44 38.5330 -109.8970 45° Northeast 464 534 37,000  Level FlightAware
13:45 38.5940 -109.8090 48° Northeast 458 527 37,000  Level FlightAware
13:45 38.6290 -109.7280 61° Northeast 457 526 37,000  Level FlightAware
13:46 38.6610 -109.6500 62° Northeast 457 526 37,000  Level FlightAware
13:47 38.6920 -109.5660 65° Northeast 457 526 37,000  Level FlightAware
13:47 38.7190 -109.4900 65° Northeast 456 525 37,000  Level FlightAware
13:48 38.7540 -109.3890 66° East 456 525 37,000  Level FlightAware
13:48 38.7770 -109.3260 65° Northeast 455 524 37,000  Level FlightAware
13:49 38.8130 -109.2220 66° East 456 525 37,000  Level FlightAware
13:49 38.8470 -109.1270 65° Northeast 456 525 37,000  Level FlightAware
13:50 38.8740 -109.0510 65° Northeast 457 526 37,000  Level FlightAware
13:51 38.9070 -108.9570 66° East 457 526 37,000  Level FlightAware
13:51 38.9340 -108.8790 66° East 457 526 37,000  Level FlightAware
13:52 38.9660 -108.7870 66° East 457 526 37,000  Level FlightAware
13:52 38.9910 -108.7150 66° East 457 526 37,000  Level FlightAware
13:53 39.0300 -108.6030 66° East 458 527 37,000  Level FlightAware
13:54 39.0630 -108.5090 66° East 459 528 37,000  Level FlightAware
13:54 39.1000 -108.4010 66° East 461 531 37,000  Level FlightAware
13:55 39.1290 -108.3160 66° East 461 531 37,000  Level FlightAware
13:56 39.1570 -108.2340 66° East 462 532 37,000  Level FlightAware
13:56 39.1960 -108.1200 66° East 461 531 37,000  Level FlightAware
13:57 39.2240 -108.0390 66° East 459 528 37,000  Level FlightAware
13:57 39.2580 -107.9380 66° East 458 527 37,000  Level FlightAware
13:58 39.2840 -107.8610 66° East 458 527 37,000  Level FlightAware
13:59 39.3150 -107.7670 67° East 457 526 37,000  Level FlightAware
13:59 39.3410 -107.6890 67° East 458 527 37,000  Level FlightAware
14:00 39.3640 -107.6220 66° East 460 529 37,000  Level FlightAware ADS-B
14:00 39.3897 -107.5450 67° East 460 529 37,000  Level FlightAware ADS-B
14:01 39.4154 -107.4690 66° East 460 529 37,000  Level FlightAware ADS-B
14:01 39.4418 -107.3880 67° East 460 529 37,000  Level FlightAware ADS-B
14:02 39.4670 -107.3120 67° East 459 528 37,000  Level FlightAware ADS-B
14:02 39.4927 -107.2340 67° East 458 527 37,000  Level FlightAware ADS-B
14:03 39.5177 -107.1590 67° East 457 526 37,000  Level FlightAware ADS-B
14:03 39.5426 -107.0830 67° East 457 526 37,000  Level FlightAware ADS-B
14:04 39.5674 -107.0080 67° East 454 522 37,000  Level FlightAware ADS-B
14:04 39.5919 -106.9330 67° East 453 521 37,000  Level FlightAware ADS-B
14:05 39.6169 -106.8560 67° East 452 520 37,000  Level FlightAware ADS-B
14:05 39.6411 -106.7810 67° East 451 519 37,000  Level FlightAware ADS-B
14:06 39.6657 -106.7060 67° East 451 519 37,000  Level FlightAware ADS-B
14:06 39.6899 -106.6310 67° East 451 519 37,000  Level FlightAware ADS-B
14:07 39.7139 -106.5560 67° East 450 518 37,000  Level FlightAware ADS-B
14:07 39.7383 -106.4810 67° East 450 518 37,000  Level FlightAware ADS-B
14:08 39.7628 -106.4040 67° East 449 517 37,000  Level FlightAware ADS-B
14:08 39.7867 -106.3300 67° East 448 516 37,000  Level FlightAware ADS-B
14:09 39.8105 -106.2550 68° East 447 514 37,000  Level FlightAware ADS-B
14:09 39.8360 -106.1750 67° East 447 514 37,000  Level FlightAware ADS-B
14:10 39.8599 -106.1000 67° East 446 513 37,000  Level FlightAware ADS-B
14:10 39.8833 -106.0250 68° East 446 513 37,000  Level FlightAware ADS-B
14:11 39.9096 -105.9420 68° East 446 513 37,000  Level FlightAware ADS-B
14:11 39.9331 -105.8670 68° East 446 513 37,000  Level FlightAware ADS-B
14:12 39.9572 -105.7910 68° East 447 514 37,000  Level FlightAware ADS-B
14:12 39.9821 -105.7110 68° East 447 514 37,000  Level FlightAware ADS-B
14:13 40.0062 -105.6340 68° East 449 517 37,000  Level FlightAware ADS-B
14:13 40.0294 -105.5590 68° East 449 517 37,000  Level FlightAware ADS-B
14:14 40.0570 -105.4700 68° East 450 518 37,000  Level FlightAware ADS-B
14:14 40.0810 -105.3930 68° East 450 518 37,000  Level FlightAware ADS-B
14:15 40.1096 -105.3000 68° East 450 518 37,000  Level FlightAware ADS-B
14:16 40.1329 -105.2240 68° East 449 517 37,000  Level FlightAware ADS-B
14:16 40.1563 -105.1480 68° East 448 516 37,000  Level FlightAware ADS-B
14:17 40.1793 -105.0720 68° East 446 513 37,000  Level FlightAware ADS-B
14:17 40.2029 -104.9950 68° East 444 511 37,000  Level FlightAware ADS-B
14:18 40.2257 -104.9200 68° East 443 510 37,000  Level FlightAware ADS-B
14:18 40.2484 -104.8450 68° East 442 509 37,000  Level FlightAware ADS-B
14:19 40.2712 -104.7690 69° East 441 507 37,000  Level FlightAware ADS-B
14:19 40.2935 -104.6950 68° East 440 506 37,000  Level FlightAware ADS-B
14:20 40.3160 -104.6200 69° East 440 506 37,000  Level FlightAware ADS-B
14:20 40.3384 -104.5460 68° East 439 505 37,000  Level FlightAware ADS-B
14:21 40.3607 -104.4710 69° East 439 505 37,000  Level FlightAware ADS-B
14:21 40.3828 -104.3970 69° East 439 505 37,000  Level FlightAware ADS-B
14:22 40.4055 -104.3210 69° East 440 506 37,000  Level FlightAware ADS-B
14:22 40.4278 -104.2450 69° East 441 507 37,000  Level FlightAware ADS-B
14:23 40.4504 -104.1680 69° East 441 507 37,000  Level FlightAware ADS-B
14:23 40.4727 -104.0930 69° East 443 510 37,000  Level FlightAware ADS-B
14:24 40.4988 -104.0040 69° East 443 510 37,000  Level FlightAware ADS-B
14:24 40.5191 -103.9270 71° East 445 512 37,000  Level FlightAware ADS-B
14:25 40.5389 -103.8500 71° East 444 511 37,000  Level FlightAware ADS-B
14:25 40.5591 -103.7720 71° East 445 512 37,000  Level FlightAware ADS-B
14:26 40.5814 -103.6850 71° East 445 512 37,000  Level FlightAware ADS-B
14:26 40.6024 -103.6030 71° East 445 512 37,000  Level FlightAware ADS-B
14:27 40.6225 -103.5250 71° East 446 513 37,000  Level FlightAware ADS-B
14:27 40.6422 -103.4480 71° East 446 513 37,000  Level FlightAware ADS-B
14:28 40.6634 -103.3650 71° East 447 514 37,000  Level FlightAware ADS-B
14:28 40.6833 -103.2860 72° East 447 514 37,000  Level FlightAware ADS-B
14:29 40.7038 -103.2050 72° East 447 514 37,000  Level FlightAware ADS-B
14:29 40.7231 -103.1280 72° East 447 514 37,000  Level FlightAware ADS-B
14:30 40.7428 -103.0500 72° East 445 512 37,000  Level FlightAware ADS-B
14:30 40.7623 -102.9720 72° East 443 510 37,000  Level FlightAware ADS-B
14:31 40.7816 -102.8950 72° East 443 510 37,000  Level FlightAware ADS-B
14:32 40.8155 -102.7580 72° East 442 509 37,000  Level FlightAware ADS-B
14:32 40.8346 -102.6800 72° East 441 507 37,000  Level FlightAware ADS-B
14:33 40.8542 -102.6010 72° East 440 506 37,000  Level FlightAware ADS-B
14:33 40.8731 -102.5240 72° East 440 506 37,000  Level FlightAware ADS-B
14:34 40.8922 -102.4460 72° East 440 506 37,000  Level FlightAware ADS-B
14:34 40.9111 -102.3690 72° East 440 506 37,000  Level FlightAware ADS-B
14:35 40.9305 -102.2880 72° East 440 506 37,000  Level FlightAware ADS-B
14:35 40.9494 -102.2100 72° East 440 506 37,000  Level FlightAware ADS-B
14:36 40.9696 -102.1260 72° East 440 506 37,000  Level FlightAware ADS-B
14:36 40.9882 -102.0490 72° East 441 507 37,000  Level FlightAware ADS-B
14:37 41.0010 -101.9960 72° East 441 507 37,000  Level FlightAware ADS-B
14:37 41.0216 -101.9200 70° East 441 507 37,000  Level FlightAware ADS-B
14:38 41.0427 -101.8420 70° East 441 507 37,000  Level FlightAware ADS-B
14:39 41.1002 -101.6280 70° East 442 509 37,000  Level FlightAware ADS-B
14:40 41.1209 -101.5500 71° East 442 509 37,000  Level FlightAware ADS-B
14:40 41.1418 -101.4720 70° East 443 510 37,000  Level FlightAware ADS-B
14:41 41.1629 -101.3920 71° East 443 510 37,000  Level FlightAware ADS-B
14:41 41.1836 -101.3140 71° East 443 510 37,000  Level FlightAware ADS-B
14:42 41.2046 -101.2340 71° East 441 507 37,000  Level FlightAware ADS-B
14:43 41.2369 -101.1156 71° East 440 506 37,000  Level Denver Center
14:44 41.2811 -100.9431 71° East 437 503 37,000  Level Denver Center
14:45 41.3200 -100.7964 71° East 437 503 37,000  Level Denver Center
14:46 41.3644 -100.6250 71° East 438 504 37,000  Level Denver Center
14:47 41.4017 -100.4792 71° East 433 498 37,000  Level Denver Center
14:48 41.4444 -100.3092 71° East 432 497 37,000  Level Denver Center
14:49 41.4789 -100.1608 73° East 434 499 37,000  Level Denver Center
14:50 41.5206 -99.9619 74° East 435 501 37,000  Level Denver Center
14:51 41.5536 -99.8156 73° East 433 498 37,000  Level Denver Center
14:52 41.5889 -99.6578 73° East 431 496 37,000  Level Denver Center
14:53 41.6214 -99.5028 74° East 430 495 37,000  Level Denver Center
14:54 41.6550 -99.3481 74° East 431 496 37,000  Level Denver Center
14:55 41.6944 -99.1611 74° East 432 497 37,000  Level Denver Center
15:02 41.8950 -98.1940 74° East 434 499 37,000  Level FlightAware
15:02 41.9120 -98.1080 75° East 433 498 37,000  Level FlightAware
15:03 41.9300 -98.0180 75° East 432 497 37,000  Level FlightAware
15:03 41.9490 -97.9250 75° East 432 497 37,000  Level FlightAware
15:04 41.9650 -97.8430 75° East 432 497 37,000  Level FlightAware
15:05 41.9920 -97.7080 75° East 433 498 37,000  Level FlightAware
15:05 42.0080 -97.6280 75° East 433 498 37,000  Level FlightAware
15:06 42.0240 -97.5490 75° East 433 498 37,000  Level FlightAware
15:06 42.0460 -97.4260 76° East 435 501 37,000  Level FlightAware
15:07 42.0600 -97.3040 81° East 438 504 37,000  Level FlightAware
15:08 42.0700 -97.2170 81° East 437 503 37,000  Level FlightAware
15:08 42.0810 -97.1170 82° East 437 503 37,000  Level FlightAware
15:09 42.0910 -97.0260 82° East 437 503 37,000  Level FlightAware
15:10 42.1010 -96.9410 81° East 437 503 37,000  Level FlightAware
15:10 42.1130 -96.8190 82° East 437 503 37,000  Level FlightAware
15:11 42.1230 -96.7270 82° East 437 503 37,000  Level FlightAware
15:11 42.1340 -96.6200 82° East 438 504 37,000  Level FlightAware
15:12 42.1440 -96.5330 81° East 439 505 37,000  Level FlightAware
15:13 42.1560 -96.4170 82° East 440 506 37,000  Level FlightAware
15:14 42.1700 -96.2820 82° East 439 505 37,000  Level FlightAware
15:14 42.1790 -96.1930 82° East 436 502 37,000  Level FlightAware
15:15 42.1880 -96.1000 83° East 433 498 37,000  Level FlightAware
15:15 42.1970 -96.0100 82° East 433 498 37,000  Level FlightAware
15:16 42.2070 -95.9170 82° East 431 496 37,000  Level FlightAware
15:16 42.2160 -95.8270 82° East 430 495 37,000  Level FlightAware
15:17 42.2240 -95.7430 83° East 431 496 37,000  Level FlightAware
15:18 42.2350 -95.6250 83° East 432 497 37,000  Level FlightAware
15:18 42.2440 -95.5400 82° East 433 498 37,000  Level FlightAware
15:19 42.2530 -95.4430 83° East 433 498 37,000  Level FlightAware
15:19 42.2620 -95.3460 83° East 434 499 37,000  Level FlightAware
15:20 42.2700 -95.2630 83° East 434 499 37,000  Level FlightAware
15:20 42.2780 -95.1720 83° East 434 499 37,000  Level FlightAware
15:21 42.2880 -95.0700 82° East 433 498 37,000  Level FlightAware
15:22 42.2970 -94.9720 83° East 433 498 37,000  Level FlightAware
15:22 42.3050 -94.8760 84° East 432 497 37,000  Level FlightAware
15:23 42.3130 -94.7860 83° East 431 496 37,000  Level FlightAware
15:23 42.3210 -94.7010 83° East 430 495 37,000  Level FlightAware
15:24 42.3300 -94.6000 83° East 429 494 37,000  Level FlightAware
15:25 42.3380 -94.5110 83° East 427 491 37,000  Level FlightAware
15:25 42.3460 -94.4140 84° East 427 491 37,000  Level FlightAware
15:26 42.3530 -94.3270 84° East 426 490 37,000  Level FlightAware
15:26 42.3620 -94.2240 83° East 425 489 37,000  Level FlightAware
15:27 42.3690 -94.1390 84° East 425 489 37,000  Level FlightAware
15:28 42.3770 -94.0480 83° East 424 488 37,000  Level FlightAware
15:28 42.3850 -93.9530 83° East 424 488 37,000  Level FlightAware
15:29 42.3920 -93.8670 84° East 426 490 37,000  Level FlightAware
15:29 42.3980 -93.7900 84° East 427 491 37,000  Level FlightAware
15:30 42.4060 -93.6940 84° East 428 493 37,000  Level FlightAware
15:30 42.4130 -93.5990 84° East 428 493 37,000  Level FlightAware
15:31 42.4200 -93.5090 84° East 429 494 37,000  Level FlightAware
15:31 42.4270 -93.4250 84° East 429 494 37,000  Level FlightAware
15:32 42.4350 -93.3230 84° East 429 494 37,000  Level FlightAware
15:33 42.4420 -93.2250 84° East 430 495 37,000  Level FlightAware
15:33 42.4490 -93.1290 84° East 430 495 37,000  Level FlightAware
15:34 42.4560 -93.0360 84° East 430 495 37,000  Level FlightAware
15:34 42.4620 -92.9520 84° East 429 494 37,000 -300 Level FlightAware
15:35 42.4690 -92.8530 84° East 425 489 36,700 -600 Descending FlightAware
15:36 42.4760 -92.7640 84° East 425 489 36,300 -720 Descending FlightAware
15:36 42.4820 -92.6760 85° East 429 494 35,900 -840 Descending FlightAware
15:37 42.4900 -92.5720 84° East 427 491 35,300 -900 Descending FlightAware
15:37 42.4950 -92.4860 85° East 426 490 34,900 -840 Descending FlightAware
15:38 42.5020 -92.3930 84° East 428 493 34,400 -840 Descending FlightAware
15:38 42.5080 -92.2960 85° East 429 494 33,900 -960 Descending FlightAware
15:39 42.5150 -92.1990 84° East 430 495 33,300 -660 Descending FlightAware
15:40 42.5200 -92.1190 85° East 429 494 33,200 -480 Descending FlightAware
15:40 42.5240 -92.0160 87° East 431 496 32,800 -780 Descending FlightAware
15:41 42.5250 -91.9240 89° East 432 497 32,300 -960 Descending FlightAware
15:41 42.5250 -91.8220 90° East 430 495 31,700 -900 Descending FlightAware
15:42 42.5260 -91.7360 89° East 432 497 31,300 -840 Descending FlightAware
15:43 42.5260 -91.6410 90° East 435 501 30,800 -960 Descending FlightAware
15:43 42.5270 -91.5400 89° East 441 507 30,200 -960 Descending FlightAware
15:44 42.5270 -91.4350 90° East 441 507 29,700 -900 Descending FlightAware
15:44 42.5270 -91.3510 90° East 442 509 29,200 -900 Descending FlightAware
15:45 42.5270 -91.2500 90° East 440 506 28,700 -840 Descending FlightAware
15:45 42.5270 -91.1690 90° East 445 512 28,300 -840 Descending FlightAware
15:46 42.5270 -91.0460 90° East 448 516 27,700 -960 Descending FlightAware
15:47 42.5270 -90.9660 90° East 446 513 27,200 -960 Descending FlightAware
15:47 42.5270 -90.8590 90° East 442 509 26,600 -960 Descending FlightAware
15:48 42.5270 -90.7680 90° East 440 506 26,100 -900 Descending FlightAware
15:48 42.5260 -90.6640 91° East 437 503 25,600 -900 Descending FlightAware
15:49 42.5250 -90.5720 91° East 435 501 25,100 -960 Descending FlightAware
15:50 42.5240 -90.4740 91° East 437 503 24,500 -960 Descending FlightAware
15:50 42.5230 -90.3810 91° East 433 498 24,000 -480 Descending FlightAware
15:51 42.5230 -90.3040 90° East 431 496 24,000  Level FlightAware
15:51 42.5220 -90.1890 91° East 428 493 24,000  Level FlightAware
15:52 42.5210 -90.1040 91° East 426 490 24,000  Level FlightAware
15:53 42.5210 -90.0020 90° East 423 487 24,000  Level FlightAware
15:53 42.5200 -89.9160 91° East 422 486 24,000  Level FlightAware
15:54 42.5190 -89.8310 91° East 421 484 24,000  Level FlightAware
15:54 42.5180 -89.7410 91° East 420 483 24,000  Level FlightAware
15:55 42.5170 -89.6490 91° East 420 483 24,000 -780 Level FlightAware
15:55 42.5150 -89.5480 92° East 413 475 23,100 -2,160 Descending FlightAware
15:56 42.5140 -89.4560 91° East 411 473 21,400 -2,340 Descending FlightAware
15:57 42.5120 -89.3760 92° East 398 458 20,500 -1,980 Descending FlightAware
15:57 42.5110 -89.2880 91° East 392 451 19,200 -1,980 Descending FlightAware
15:58 42.5090 -89.2020 92° East 394 453 18,100 -1,920 Descending FlightAware
15:58 42.5080 -89.1100 91° East 390 449 16,900 -2,160 Descending FlightAware
15:59 42.5080 -89.0310 90° East 383 441 15,700 -2,400 Descending FlightAware
15:59 42.5050 -88.9400 93° East 376 433 14,200 -2,100 Descending FlightAware
16:00 42.4840 -88.8600 110° East 372 428 13,200 -1,380 Descending FlightAware
16:01 42.4640 -88.7940 112° Southeast 365 420 12,700 -1,140 Descending FlightAware
16:01 42.4420 -88.7210 112° Southeast 359 413 12,000 -1,320 Descending FlightAware
16:02 42.4200 -88.6480 112° Southeast 354 407 11,200 -1,440 Descending FlightAware
16:02 42.3980 -88.5740 112° Southeast 353 406 10,300 -1,380 Descending FlightAware
16:03 42.3850 -88.5330 113° Southeast 354 407 9,900 -780 Descending FlightAware
16:03 42.3730 -88.4920 112° Southeast 351 404 9,800  Descending FlightAware
16:03 42.3630 -88.4590 112° Southeast 348 400 9,900 120 Climbing FlightAware
16:04 42.3510 -88.4200 113° Southeast 344 396 9,900  Level FlightAware
16:04 42.3360 -88.3820 118° Southeast 345 397 9,900  Level FlightAware
16:04 42.3220 -88.3580 128° Southeast 347 399 9,900  Level FlightAware
16:04 42.3090 -88.3350 127° Southeast 347 399 9,900 -180 Level FlightAware
16:05 42.2840 -88.2940 129° Southeast 328 377 9,800 -180 Descending FlightAware
16:05 42.2660 -88.2630 128° Southeast 307 353 9,800 -480 Level FlightAware
16:06 42.2490 -88.2350 129° Southeast 295 339 9,500 -1,020 Descending FlightAware
16:06 42.2380 -88.2180 131° Southeast 290 334 9,300 -1,200 Descending FlightAware
16:06 42.2190 -88.1850 128° Southeast 284 327 8,800 -1,320 Descending FlightAware
16:06 42.2000 -88.1550 131° Southeast 281 323 8,300 -1,380 Descending FlightAware
16:07 42.1870 -88.1370 134° Southeast 278 320 8,000 -1,380 Descending FlightAware
16:07 42.1680 -88.1150 139° Southeast 277 319 7,500 -1,500 Descending FlightAware
16:07 42.1560 -88.1010 139° Southeast 278 320 7,200 -1,140 Descending FlightAware
16:08 42.1370 -88.0790 139° Southeast 275 316 6,900 -420 Descending FlightAware
16:08 42.1140 -88.0530 140° Southeast 272 313 6,900  Level FlightAware
16:08 42.1070 -88.0420 131° Southeast 272 313 6,900  Level FlightAware
16:08 42.0940 -88.0120 120° Southeast 275 316 6,900  Level FlightAware
16:09 42.0920 -87.9940 99° East 277 319 6,900  Level FlightAware
16:09 42.0920 -87.9580 90° East 277 319 6,900 -180 Level FlightAware
16:09 42.0920 -87.9200 90° East 273 314 6,800  Descending FlightAware
16:10 42.0920 -87.8850 90° East 268 308 6,900 120 Climbing FlightAware
16:10 42.0920 -87.8460 90° East 243 280 6,900  Level FlightAware
16:11 42.0920 -87.8140 90° East 241 277 6,900 -840 Level FlightAware
16:11 42.0920 -87.7780 90° East 237 273 6,300 -1,680 Descending FlightAware
16:11 42.0920 -87.7480 90° East 234 269 5,700 -1,920 Descending FlightAware
16:11 42.0920 -87.7310 90° East 232 267 5,300 -1,740 Descending FlightAware
16:12 42.0920 -87.7070 90° East 232 267 4,900 -1,440 Descending FlightAware
16:12 42.0920 -87.6760 90° East 229 264 4,400 -1,440 Descending FlightAware
16:12 42.0900 -87.6590 99° East 223 257 4,100 -1,500 Descending FlightAware
16:12 42.0860 -87.6490 118° Southeast 219 252 3,900 -1,080 Descending FlightAware
16:13 42.0820 -87.6430 132° Southeast 214 246 3,800 -960 Descending FlightAware
16:13 42.0780 -87.6400 151° Southeast 211 243 3,700 -1,020 Descending FlightAware
16:13 42.0730 -87.6370 156° South 207 238 3,600 -960 Descending FlightAware
16:13 42.0680 -87.6370 180° South 203 234 3,500 -1,800 Descending FlightAware
16:13 42.0480 -87.6510 207° Southwest 197 227 2,800 -1,620 Descending FlightAware
16:13 42.0470 -87.6550 251° West 197 227 2,800 -840 Level FlightAware
16:14 42.0410 -87.6760 249° West 197 227 2,500 -840 Descending FlightAware
16:14 42.0340 -87.6980 247° West 196 226 2,300 -600 Descending FlightAware
16:14 42.0260 -87.7210 245° Southwest 190 219 2,100 -480 Descending FlightAware
16:15 42.0210 -87.7400 250° West 176 203 2,000  Descending FlightAware
16:15 42.0130 -87.7630 245° Southwest 168 193 2,100  Climbing FlightAware
16:15 42.0050 -87.7860 245° Southwest 168 193 2,000 -360 Descending FlightAware
16:16 42.0030 -87.7990 258° West 170 196 1,900 -600 Descending FlightAware
16:16 42.0030 -87.8170 270° West 160 184 1,700 -720 Descending FlightAware
16:16 42.0030 -87.8390 270° West 151 174 1,400 -900 Descending FlightAware
16:17 42.0030 -87.8560 270° West 145 167 1,100 -900 Descending FlightAware
16:17 42.0030 -87.8790 270° West 146 168 800 -720 Descending FlightAware
16:17 42.0030 -87.8960 270° West 147 169 600 -600 Descending FlightAware
16:18 42.0030 -87.9140 270° West 98 113 -1,680 Descending FlightAware
16:18 42.0030 -87.9280 270° West 98 113  Level FlightAware